Time;durP1;ratioP1;P1;durP2;ratioP2;P2;SDS_P1;SDS_P2;PMS_P1;PMS_P2;Temp;Humidity;BMP_temperature;BMP_pressure;BME280_temperature;BME280_humidity;BME280_pressure;Samples;Min_cycle;Max_cycle;Signal;HPM_P1;HPM_P2
2024/03/17 00:02:13;;;;;;;39.33;25.73;;;;;;;10.61;100.00;100515.14;1468921;88;21384;-74
2024/03/17 00:04:40;;;;;;;36.77;24.20;;;;;;;10.59;100.00;100515.80;1470001;88;22336;-74
2024/03/17 00:07:08;;;;;;;40.50;26.03;;;;;;;10.57;100.00;100513.77;1465911;88;21323;-73
2024/03/17 00:09:35;;;;;;;38.70;27.63;;;;;;;10.58;100.00;100511.46;1451999;88;21674;-74
2024/03/17 00:12:03;;;;;;;37.17;24.73;;;;;;;10.57;100.00;100510.63;1474293;88;21317;-74
2024/03/17 00:14:30;;;;;;;34.37;23.07;;;;;;;10.59;100.00;100499.91;1471211;88;21501;-74
2024/03/17 00:16:57;;;;;;;35.00;22.07;;;;;;;10.61;100.00;100497.44;1472172;88;22365;-74
2024/03/17 00:19:26;;;;;;;35.17;25.30;;;;;;;10.61;100.00;100495.28;1469432;88;21538;-74
2024/03/17 00:21:53;;;;;;;31.73;21.93;;;;;;;10.61;100.00;100501.91;1474086;88;21427;-74
2024/03/17 00:24:20;;;;;;;32.03;23.83;;;;;;;10.58;100.00;100492.94;1465710;88;21611;-74
2024/03/17 00:26:53;;;;;;;32.63;23.50;;;;;;;10.57;100.00;100490.78;1450093;88;21449;-73
2024/03/17 00:29:17;;;;;;;30.83;22.47;;;;;;;10.56;100.00;100482.52;1470987;88;21541;-74
2024/03/17 00:31:44;;;;;;;29.40;22.20;;;;;;;10.54;100.00;100479.17;1472537;88;22247;-74
2024/03/17 00:34:12;;;;;;;31.97;22.07;;;;;;;10.52;100.00;100475.83;1466179;88;21353;-74
2024/03/17 00:36:39;;;;;;;35.87;25.17;;;;;;;10.47;100.00;100484.72;1468863;88;21541;-73
2024/03/17 00:39:06;;;;;;;34.57;23.27;;;;;;;10.41;100.00;100478.66;1469816;88;21280;-74
2024/03/17 00:41:34;;;;;;;31.80;23.57;;;;;;;10.35;100.00;100472.13;1469041;88;21367;-74
2024/03/17 00:44:03;;;;;;;31.87;23.03;;;;;;;10.27;100.00;100470.72;1469578;88;21420;-73
2024/03/17 00:46:30;;;;;;;28.40;21.90;;;;;;;10.20;100.00;100476.20;1469142;88;21310;-73
2024/03/17 00:48:58;;;;;;;31.07;21.97;;;;;;;10.17;100.00;100465.91;1460943;88;22233;-74
2024/03/17 00:51:25;;;;;;;31.07;22.67;;;;;;;10.14;100.00;100466.20;1470651;88;21546;-73
2024/03/17 00:53:52;;;;;;;29.27;21.47;;;;;;;10.10;100.00;100462.19;1477414;88;21412;-73
2024/03/17 00:56:20;;;;;;;27.33;21.60;;;;;;;10.04;100.00;100464.05;1479158;88;21302;-73
2024/03/17 00:58:47;;;;;;;31.07;22.83;;;;;;;9.99;100.00;100458.39;1470711;88;21376;-73
2024/03/17 01:01:15;;;;;;;30.50;21.23;;;;;;;9.97;100.00;100459.01;1462825;88;21508;-73
2024/03/17 01:03:42;;;;;;;32.07;22.30;;;;;;;9.91;100.00;100463.87;1467849;88;21427;-73
2024/03/17 01:06:10;;;;;;;32.53;22.70;;;;;;;9.84;100.00;100464.12;1470391;88;21914;-73
2024/03/17 01:08:37;;;;;;;33.63;21.77;;;;;;;9.83;100.00;100466.40;1448689;88;21820;-73
2024/03/17 01:11:08;;;;;;;30.97;21.77;;;;;;;9.83;100.00;100464.25;1468928;88;21382;-73
2024/03/17 01:13:34;;;;;;;34.37;23.13;;;;;;;9.80;100.00;100463.20;1465755;88;21582;-72
2024/03/17 01:16:01;;;;;;;30.37;23.17;;;;;;;9.77;100.00;100473.58;1475296;88;22380;-72
2024/03/17 01:18:28;;;;;;;28.60;21.77;;;;;;;9.75;100.00;100466.27;1475744;88;21383;-73
2024/03/17 01:20:55;;;;;;;33.03;23.20;;;;;;;9.75;100.00;100462.30;1463598;88;21527;-73
2024/03/17 01:23:23;;;;;;;33.90;22.97;;;;;;;9.74;100.00;100464.61;1468955;88;21375;-73
2024/03/17 01:25:50;;;;;;;27.83;20.73;;;;;;;9.71;100.00;100467.05;1462751;88;21427;-73
2024/03/17 01:28:17;;;;;;;30.40;21.60;;;;;;;9.72;100.00;100466.55;1450376;88;22402;-73
2024/03/17 01:30:47;;;;;;;32.70;21.17;;;;;;;9.70;100.00;100461.91;1459485;88;21724;-73
2024/03/17 01:33:14;;;;;;;34.60;23.17;;;;;;;9.71;100.00;100456.96;1465774;88;22034;-72
2024/03/17 01:35:41;;;;;;;28.83;21.33;;;;;;;9.72;100.00;100461.27;1468214;88;21522;-73
2024/03/17 01:38:10;;;;;;;30.60;22.00;;;;;;;9.69;100.00;100454.94;1468788;88;21360;-73
2024/03/17 01:40:37;;;;;;;31.07;20.73;;;;;;;9.69;100.00;100450.98;1463477;88;21456;-73
2024/03/17 01:43:04;;;;;;;29.27;21.40;;;;;;;9.66;100.00;100438.05;1472853;88;21338;-74
2024/03/17 01:45:33;;;;;;;31.37;22.57;;;;;;;9.63;100.00;100437.84;1470679;88;22804;-72
2024/03/17 01:48:03;;;;;;;31.90;21.83;;;;;;;9.61;100.00;100448.20;1459388;88;21606;-73
2024/03/17 01:50:37;;;;;;;36.05;23.45;;;;;;;9.59;100.00;100443.56;1466864;88;21534;-73
2024/03/17 01:53:07;;;;;;;29.03;21.60;;;;;;;9.60;100.00;100451.83;1467551;88;21486;-73
2024/03/17 01:55:37;;;;;;;31.73;22.43;;;;;;;9.58;100.00;100452.45;1462582;88;21367;-72
2024/03/17 01:58:13;;;;;;;35.92;22.87;;;;;;;9.51;100.00;100444.75;1453455;88;21397;-73
2024/03/17 02:00:40;;;;;;;28.23;20.47;;;;;;;9.45;100.00;100448.29;1476070;88;22373;-73
2024/03/17 02:03:10;;;;;;;30.70;21.40;;;;;;;9.40;100.00;100443.91;1468401;88;21397;-73
2024/03/17 02:05:39;;;;;;;31.40;22.48;;;;;;;9.33;100.00;100441.48;1467297;88;21405;-73
2024/03/17 02:08:07;;;;;;;30.30;23.73;;;;;;;9.26;100.00;100441.22;1473602;88;21368;-73
2024/03/17 02:10:35;;;;;;;35.37;22.83;;;;;;;9.24;100.00;100442.33;1453056;88;22625;-74
2024/03/17 02:13:05;;;;;;;31.83;24.13;;;;;;;9.21;100.00;100442.61;1475057;88;21434;-73
2024/03/17 02:15:33;;;;;;;32.40;22.32;;;;;;;9.19;100.00;100451.14;1474248;88;21368;-73
2024/03/17 02:18:01;;;;;;;28.97;22.13;;;;;;;9.18;100.00;100452.12;1468737;88;21360;-73
2024/03/17 02:23:14;;;;;;;34.57;24.47;;;;;;;9.22;100.00;100453.51;1470674;88;21368;-73
2024/03/17 02:25:41;;;;;;;28.83;22.50;;;;;;;9.25;100.00;100452.73;1469077;88;22493;-73
2024/03/17 02:28:08;;;;;;;32.17;22.80;;;;;;;9.28;100.00;100443.70;1468383;88;21346;-73
2024/03/17 02:30:36;;;;;;;26.10;20.60;;;;;;;9.30;100.00;100445.73;1472839;88;22478;-73
2024/03/17 02:33:03;;;;;;;32.27;22.90;;;;;;;9.34;100.00;100448.43;1470699;88;21375;-74
2024/03/17 02:35:31;;;;;;;28.70;20.77;;;;;;;9.38;100.00;100451.62;1466072;88;21420;-73
2024/03/17 02:37:58;;;;;;;34.30;24.53;;;;;;;9.43;100.00;100450.23;1467578;88;21382;-73
2024/03/17 02:40:25;;;;;;;34.93;23.80;;;;;;;9.49;100.00;100456.30;1469337;88;21537;-73
2024/03/17 02:42:52;;;;;;;37.07;23.80;;;;;;;9.54;100.00;100457.19;1472637;88;21309;-72
2024/03/17 02:45:21;;;;;;;31.77;22.97;;;;;;;9.57;100.00;100452.94;1469299;88;21523;-73
2024/03/17 02:47:49;;;;;;;27.50;21.20;;;;;;;9.59;100.00;100456.28;1464651;88;22410;-73
2024/03/17 02:50:17;;;;;;;34.97;23.80;;;;;;;9.62;100.00;100455.17;1466170;88;21529;-74
2024/03/17 02:52:44;;;;;;;32.80;23.83;;;;;;;9.67;100.00;100455.09;1470885;88;21494;-73
2024/03/17 02:55:11;;;;;;;34.73;24.83;;;;;;;9.73;100.00;100447.59;1469104;88;21490;-73
2024/03/17 02:57:40;;;;;;;33.17;22.90;;;;;;;9.76;100.00;100450.77;1464999;88;21464;-73
2024/03/17 03:00:12;;;;;;;32.80;22.83;;;;;;;9.80;100.00;100450.83;1469581;88;21368;-73
2024/03/17 03:02:38;;;;;;;32.85;23.60;;;;;;;9.82;100.00;100444.09;1459406;88;21590;-73
2024/03/17 03:05:05;;;;;;;30.80;22.60;;;;;;;9.84;100.00;100446.08;1451438;88;21391;-74
2024/03/17 03:07:33;;;;;;;34.60;23.70;;;;;;;9.85;100.00;100445.95;1476736;88;21962;-73
2024/03/17 03:10:00;;;;;;;38.43;24.13;;;;;;;9.86;100.00;100435.70;1472266;88;21538;-73
2024/03/17 03:12:27;;;;;;;31.33;23.77;;;;;;;9.87;100.00;100442.69;1448832;88;22286;-74
2024/03/17 03:14:54;;;;;;;34.67;25.43;;;;;;;9.86;100.00;100441.48;1473116;88;21382;-74
2024/03/17 03:17:21;;;;;;;35.43;24.37;;;;;;;9.84;100.00;100439.01;1453000;88;21687;-73
2024/03/17 03:19:49;;;;;;;36.87;25.30;;;;;;;9.85;100.00;100443.30;1465164;88;21337;-73
2024/03/17 03:22:16;;;;;;;32.33;23.47;;;;;;;9.83;100.00;100439.96;1473026;88;22432;-73
2024/03/17 03:24:43;;;;;;;32.77;25.03;;;;;;;9.80;100.00;100442.06;1470870;88;22498;-72
2024/03/17 03:27:10;;;;;;;35.83;26.03;;;;;;;9.79;100.00;100447.84;1453017;88;21345;-72
2024/03/17 03:29:38;;;;;;;37.70;27.03;;;;;;;9.78;100.00;100453.26;1461756;88;21339;-73
2024/03/17 03:32:07;;;;;;;35.30;26.17;;;;;;;9.76;100.00;100454.73;1470013;88;21457;-73
2024/03/17 03:34:35;;;;;;;40.63;26.63;;;;;;;9.76;100.00;100452.59;1466994;88;21405;-73
2024/03/17 03:37:02;;;;;;;40.03;27.80;;;;;;;9.74;100.00;100454.03;1473133;88;21489;-73
2024/03/17 03:39:31;;;;;;;41.40;30.43;;;;;;;9.72;100.00;100449.37;1468292;88;21338;-73
2024/03/17 03:41:59;;;;;;;43.43;29.23;;;;;;;9.72;100.00;100445.41;1450025;88;21353;-72
2024/03/17 03:44:26;;;;;;;42.47;31.00;;;;;;;9.73;100.00;100443.13;1467405;88;21405;-73
2024/03/17 03:46:57;;;;;;;48.03;31.80;;;;;;;9.70;100.00;100439.45;1450065;88;21361;-73
2024/03/17 03:49:23;;;;;;;52.00;30.77;;;;;;;9.66;100.00;100436.72;1462989;88;21559;-73
2024/03/17 03:51:50;;;;;;;55.67;32.80;;;;;;;9.64;100.00;100440.02;1463993;88;21398;-73
2024/03/17 03:54:17;;;;;;;55.77;32.77;;;;;;;9.64;100.00;100437.37;1471472;88;22321;-73
2024/03/17 03:56:44;;;;;;;61.23;37.80;;;;;;;9.65;100.00;100437.71;1469155;88;21597;-73
2024/03/17 03:59:12;;;;;;;56.80;34.63;;;;;;;9.67;100.00;100436.59;1470940;88;21449;-74
2024/03/17 04:01:39;;;;;;;50.77;32.83;;;;;;;9.65;100.00;100439.03;1472938;88;21434;-74
2024/03/17 04:04:06;;;;;;;58.20;34.40;;;;;;;9.66;100.00;100448.62;1472366;88;21844;-73
2024/03/17 04:06:33;;;;;;;61.37;34.53;;;;;;;9.68;100.00;100449.32;1473862;88;21530;-73
2024/03/17 04:09:01;;;;;;;67.10;37.70;;;;;;;9.69;100.00;100453.62;1469466;88;22297;-73
2024/03/17 04:11:28;;;;;;;73.93;41.07;;;;;;;9.68;100.00;100457.25;1467314;88;21501;-73
2024/03/17 04:13:56;;;;;;;73.57;38.30;;;;;;;9.63;100.00;100459.47;1466557;88;22322;-73
2024/03/17 04:16:24;;;;;;;63.27;36.17;;;;;;;9.62;100.00;100448.08;1475574;88;21668;-73
2024/03/17 04:18:51;;;;;;;71.83;38.17;;;;;;;9.62;100.00;100445.92;1468650;88;21375;-73
2024/03/17 04:21:18;;;;;;;73.83;40.83;;;;;;;9.62;100.00;100447.24;1471081;88;21574;-74
2024/03/17 04:23:45;;;;;;;77.87;38.57;;;;;;;9.60;100.00;100447.37;1462959;88;21850;-74
2024/03/17 04:26:14;;;;;;;80.07;40.47;;;;;;;9.59;100.00;100451.00;1462637;88;22798;-72
2024/03/17 04:28:41;;;;;;;68.10;36.60;;;;;;;9.57;100.00;100450.79;1469612;88;21596;-74
2024/03/17 04:31:11;;;;;;;83.47;42.30;;;;;;;9.57;100.00;100443.69;1463045;88;21449;-73
2024/03/17 04:33:37;;;;;;;76.43;38.87;;;;;;;9.56;100.00;100446.48;1470476;88;21493;-74
2024/03/17 04:36:06;;;;;;;66.77;39.17;;;;;;;9.54;100.00;100448.43;1475238;88;21530;-74
2024/03/17 04:38:33;;;;;;;81.60;40.57;;;;;;;9.55;100.00;100446.13;1466398;88;22255;-73
2024/03/17 04:41:08;;;;;;;76.10;38.23;;;;;;;9.55;100.00;100446.13;1464331;88;21516;-73
2024/03/17 04:43:54;;;;;;;63.67;37.87;;;;;;;9.53;100.00;100447.60;1461180;88;21905;-73
2024/03/17 04:46:21;;;;;;;65.77;37.40;;;;;;;9.48;100.00;100453.30;1472978;88;22336;-74
2024/03/17 04:48:49;;;;;;;62.97;35.17;;;;;;;9.47;100.00;100452.95;1470040;88;21360;-73
2024/03/17 04:51:17;;;;;;;65.00;36.90;;;;;;;9.45;100.00;100457.53;1469838;88;21367;-73
2024/03/17 04:53:44;;;;;;;71.50;39.03;;;;;;;9.45;100.00;100460.18;1467159;88;21374;-73
2024/03/17 04:56:11;;;;;;;68.47;38.40;;;;;;;9.44;100.00;100459.84;1458015;88;22247;-73
2024/03/17 04:58:38;;;;;;;69.83;35.80;;;;;;;9.45;100.00;100459.34;1467204;88;22313;-74
2024/03/17 05:01:08;;;;;;;63.07;36.10;;;;;;;9.42;100.00;100459.14;1466206;88;21316;-73
2024/03/17 05:03:36;;;;;;;70.50;40.20;;;;;;;9.41;100.00;100464.58;1473227;88;21412;-73
2024/03/17 05:06:05;;;;;;;70.77;38.87;;;;;;;9.42;100.00;100465.74;1469609;88;21375;-73
2024/03/17 05:08:37;;;;;;;67.33;39.30;;;;;;;9.44;100.00;100460.33;1471416;88;21426;-73
2024/03/17 05:11:05;;;;;;;70.37;38.67;;;;;;;9.48;100.00;100457.75;1473416;88;21479;-73
2024/03/17 05:13:35;;;;;;;70.60;39.80;;;;;;;9.51;100.00;100456.64;1465423;88;21420;-73
2024/03/17 05:16:03;;;;;;;66.25;37.83;;;;;;;9.57;100.00;100460.03;1470977;88;21577;-75
2024/03/17 05:18:32;;;;;;;69.10;38.83;;;;;;;9.62;100.00;100465.74;1472103;88;21501;-75
2024/03/17 05:21:04;;;;;;;68.57;36.83;;;;;;;9.65;100.00;100466.78;1456319;88;21375;-77
2024/03/17 05:23:35;;;;;;;72.63;40.53;;;;;;;9.70;100.00;100471.99;1457360;88;21383;-75
2024/03/17 05:26:04;;;;;;;;;;;;;;;9.77;100.00;100472.25;1471870;88;21529;-76
2024/03/17 05:28:32;;;;;;;83.80;41.60;;;;;;;9.82;100.00;100477.95;1472700;88;20298;-75
2024/03/17 05:30:59;;;;;;;73.77;39.30;;;;;;;9.86;100.00;100475.36;1462702;88;21516;-75
2024/03/17 05:33:27;;;;;;;68.33;38.40;;;;;;;9.88;100.00;100479.20;1465569;88;22277;-75
2024/03/17 05:35:57;;;;;;;65.20;37.57;;;;;;;9.89;100.00;100479.05;1474891;88;21346;-75
2024/03/17 05:38:26;;;;;;;67.15;38.50;;;;;;;9.91;100.00;100479.74;1459240;88;21519;-75
2024/03/17 05:41:02;;;;;;;62.27;35.03;;;;;;;9.92;100.00;100486.69;1463028;88;21435;-75
2024/03/17 05:43:32;;;;;;;62.33;36.10;;;;;;;9.90;100.00;100490.48;1471961;88;21383;-75
2024/03/17 05:46:01;;;;;;;61.50;35.98;;;;;;;9.86;100.00;100499.16;1462860;88;21509;-74
2024/03/17 05:48:29;;;;;;;62.87;37.33;;;;;;;9.80;100.00;100495.76;1472995;88;22732;-75
2024/03/17 05:50:56;;;;;;;59.67;35.67;;;;;;;9.79;100.00;100495.42;1471920;88;21500;-75
2024/03/17 05:53:24;;;;;;;61.73;36.87;;;;;;;9.75;100.00;100497.98;1463341;88;22394;-75
2024/03/17 05:55:51;;;;;;;62.23;37.93;;;;;;;9.75;100.00;100491.86;1465569;88;21376;-76
2024/03/17 05:58:18;;;;;;;61.03;36.63;;;;;;;9.76;100.00;100486.95;1456355;88;22443;-75
2024/03/17 06:00:46;;;;;;;57.77;34.27;;;;;;;9.79;100.00;100490.63;1467333;88;21323;-74
2024/03/17 06:03:13;;;;;;;62.13;36.60;;;;;;;9.81;100.00;100494.80;1466741;88;21471;-75
2024/03/17 06:05:40;;;;;;;65.43;38.57;;;;;;;9.84;100.00;100489.69;1468300;88;21634;-75
2024/03/17 06:08:11;;;;;;;61.90;37.17;;;;;;;9.88;100.00;100489.28;1467935;88;21441;-76
2024/03/17 06:10:46;;;;;;;64.32;37.98;;;;;;;9.91;100.00;100492.96;1467702;88;21608;-76
2024/03/17 06:13:16;;;;;;;60.97;38.17;;;;;;;9.99;100.00;100494.91;1465266;88;21589;-75
2024/03/17 06:15:47;;;;;;;62.67;39.10;;;;;;;10.10;100.00;100496.56;1470104;88;21842;-75
2024/03/17 06:18:16;;;;;;;64.00;37.75;;;;;;;10.16;100.00;100497.31;1466458;88;21671;-75
2024/03/17 06:20:46;;;;;;;66.83;37.97;;;;;;;10.21;100.00;100495.05;1463608;88;21383;-75
2024/03/17 06:23:20;;;;;;;59.70;36.17;;;;;;;10.22;100.00;100495.91;1473493;88;21383;-75
2024/03/17 06:25:48;;;;;;;64.83;40.13;;;;;;;10.21;100.00;100498.19;1461061;88;21405;-75
2024/03/17 06:28:17;;;;;;;60.67;36.27;;;;;;;10.21;100.00;100496.37;1463610;88;22226;-75
2024/03/17 06:30:48;;;;;;;64.67;38.20;;;;;;;10.21;100.00;100509.59;1474409;88;21508;-75
2024/03/17 06:33:20;;;;;;;65.93;37.80;;;;;;;10.22;100.00;100513.09;1464978;88;21405;-75
2024/03/17 06:35:48;;;;;;;67.20;41.80;;;;;;;10.27;100.00;100513.51;1453171;88;21441;-75
2024/03/17 06:38:16;;;;;;;65.63;36.47;;;;;;;10.29;100.00;100513.72;1470704;88;21576;-74
2024/03/17 06:40:51;;;;;;;62.60;38.83;;;;;;;10.32;100.00;100518.72;1472926;88;21353;-74
2024/03/17 06:43:20;;;;;;;64.63;40.63;;;;;;;10.32;100.00;100519.21;1471014;88;21486;-75
2024/03/17 06:45:59;;;;;;;62.00;37.13;;;;;;;10.27;100.00;100522.30;1471971;88;21310;-75
2024/03/17 06:48:28;;;;;;;63.53;37.50;;;;;;;10.30;100.00;100529.95;1461390;88;21405;-74
2024/03/17 06:50:55;;;;;;;65.47;39.17;;;;;;;10.32;100.00;100529.80;1470169;88;21512;-74
2024/03/17 06:53:26;;;;;;;57.30;36.13;;;;;;;10.31;100.00;100531.61;1479389;88;21376;-75
2024/03/17 06:55:55;;;;;;;61.30;38.05;;;;;;;10.33;100.00;100528.84;1465639;88;21264;-75
2024/03/17 06:58:26;;;;;;;57.37;36.00;;;;;;;10.33;100.00;100534.12;1474275;88;21391;-76
2024/03/17 07:00:59;;;;;;;57.07;37.93;;;;;;;10.37;100.00;100534.17;1472253;88;21331;-74
2024/03/17 07:03:29;;;;;;;58.57;37.23;;;;;;;10.42;100.00;100537.72;1468765;88;21420;-75
2024/03/17 07:06:05;;;;;;;57.23;38.23;;;;;;;10.43;100.00;100544.67;1472634;88;21420;-74
2024/03/17 07:08:32;;;;;;;60.93;38.30;;;;;;;10.47;100.00;100548.69;1470265;88;21435;-75
2024/03/17 07:11:05;;;;;;;57.13;35.83;;;;;;;10.48;100.00;100551.70;1466132;88;22428;-74
2024/03/17 07:13:36;;;;;;;55.37;36.13;;;;;;;10.50;100.00;100545.75;1447968;88;21545;-76
2024/03/17 07:16:09;;;;;;;53.17;36.93;;;;;;;10.55;100.00;100548.80;1470420;88;21368;-74
2024/03/17 07:18:35;;;;;;;;;;;;;;;10.61;100.00;100558.81;1467550;88;21324;-75
2024/03/17 07:21:04;;;;;;;59.90;35.43;;;;;;;10.58;100.00;100558.60;1471268;88;20312;-75
2024/03/17 07:23:32;;;;;;;49.53;34.03;;;;;;;10.57;100.00;100557.44;1470687;88;22377;-75
2024/03/17 07:26:02;;;;;;;48.03;33.40;;;;;;;10.50;100.00;100562.48;1469173;88;22285;-75
2024/03/17 07:28:29;;;;;;;48.97;33.33;;;;;;;10.42;100.00;100561.53;1469895;88;21516;-75
2024/03/17 07:31:04;;;;;;;50.33;34.93;;;;;;;10.33;100.00;100560.58;1467917;88;21339;-76
2024/03/17 07:33:29;;;;;;;55.00;36.53;;;;;;;10.29;100.00;100568.44;1480137;88;22233;-74
2024/03/17 07:36:00;;;;;;;47.23;31.77;;;;;;;10.19;100.00;100580.34;1470381;88;22343;-74
2024/03/17 07:38:29;;;;;;;48.65;31.93;;;;;;;10.06;100.00;100596.97;1469819;88;21738;-74
2024/03/17 07:41:05;;;;;;;35.70;24.43;;;;;;;9.83;100.00;100614.42;1471836;88;21390;-75
2024/03/17 07:43:38;;;;;;;35.40;22.60;;;;;;;9.45;100.00;100622.66;1465885;88;21970;-75
2024/03/17 07:46:12;;;;;;;20.63;13.30;;;;;;;9.25;100.00;100616.97;1468359;88;21294;-75
2024/03/17 07:48:44;;;;;;;16.10;11.37;;;;;;;9.19;100.00;100622.79;1468099;88;21412;-75
2024/03/17 07:51:19;;;;;;;15.10;9.90;;;;;;;8.91;100.00;100635.73;1475923;88;22349;-75
2024/03/17 07:53:51;;;;;;;13.57;8.87;;;;;;;8.73;100.00;100624.95;1459223;88;22498;-75
2024/03/17 07:56:19;;;;;;;12.53;8.37;;;;;;;8.58;100.00;100624.45;1471070;88;22565;-76
2024/03/17 07:58:51;;;;;;;15.03;9.57;;;;;;;8.47;100.00;100628.48;1469915;88;21433;-75
2024/03/17 08:01:18;;;;;;;10.33;7.07;;;;;;;8.42;100.00;100629.34;1471991;88;21545;-75
2024/03/17 08:03:55;;;;;;;15.40;8.33;;;;;;;8.33;100.00;100623.48;1464292;88;21323;-75
2024/03/17 08:06:16;;;;;;;11.22;7.47;;;;;;;8.30;100.00;100627.22;1469185;88;21383;-75
2024/03/17 08:08:43;;;;;;;7.00;5.80;;;;;;;8.25;100.00;100625.44;1443692;90;21502;-75
2024/03/17 08:11:10;;;;;;;8.60;5.70;;;;;;;8.27;100.00;100624.84;1423526;91;21383;-76
2024/03/17 08:13:39;;;;;;;6.10;4.47;;;;;;;8.22;100.00;100627.50;1471559;88;21972;-75
2024/03/17 08:16:12;;;;;;;5.70;3.57;;;;;;;8.30;100.00;100628.53;1477626;88;21273;-75
2024/03/17 08:18:37;;;;;;;3.58;2.87;;;;;;;8.27;100.00;100625.33;1459305;88;21530;-75
2024/03/17 08:21:06;;;;;;;4.60;2.53;;;;;;;8.25;100.00;100625.92;1445395;90;21399;-76
2024/03/17 08:23:41;;;;;;;4.70;2.00;;;;;;;8.33;100.00;100620.85;1418986;91;21546;-74
2024/03/17 08:26:03;;;;;;;4.03;1.70;;;;;;;8.43;100.00;100620.48;1465616;88;22388;-76
2024/03/17 08:28:30;;;;;;;4.40;2.00;;;;;;;8.50;100.00;100623.43;1467899;88;21353;-76
2024/03/17 08:31:00;;;;;;;2.83;1.60;;;;;;;8.50;100.00;100628.22;1451730;89;22249;-76
2024/03/17 08:33:29;;;;;;;5.83;2.07;;;;;;;8.51;100.00;100622.45;1473509;88;21487;-77
2024/03/17 08:36:06;;;;;;;2.87;1.57;;;;;;;8.33;100.00;100630.08;1443633;90;21324;-75
2024/03/17 08:38:35;;;;;;;3.77;2.10;;;;;;;8.31;100.00;100628.05;1409946;92;21554;-77
2024/03/17 08:41:08;;;;;;;2.47;1.67;;;;;;;8.14;100.00;100625.48;1474752;88;22269;-76
2024/03/17 08:43:37;;;;;;;3.37;1.80;;;;;;;8.15;100.00;100636.41;1450574;90;21871;-76
2024/03/17 08:46:08;;;;;;;5.03;2.47;;;;;;;8.23;100.00;100643.20;1472068;88;21345;-76
2024/03/17 08:48:38;;;;;;;5.28;2.85;;;;;;;8.22;100.00;100638.88;1446848;90;21419;-75
2024/03/17 08:51:08;;;;;;;7.03;4.08;;;;;;;8.23;100.00;100633.12;1420283;92;21480;-76
2024/03/17 08:53:38;;;;;;;7.07;2.20;;;;;;;8.30;100.00;100630.34;1468612;88;22454;-77
2024/03/17 08:56:06;;;;;;;6.03;2.30;;;;;;;8.38;100.00;100633.67;1442379;90;22359;-75
2024/03/17 08:58:35;;;;;;;5.97;3.13;;;;;;;8.42;100.00;100635.10;1467305;88;21427;-76
2024/03/17 09:01:07;;;;;;;5.80;3.27;;;;;;;8.46;100.00;100636.05;1474880;88;21486;-75
2024/03/17 09:03:35;;;;;;;5.87;1.87;;;;;;;8.45;100.00;100633.52;1475293;88;21352;-75
2024/03/17 09:06:03;;;;;;;6.47;2.80;;;;;;;8.38;100.00;100635.81;1465571;88;21346;-75
2024/03/17 09:08:32;;;;;;;6.27;2.47;;;;;;;8.32;100.00;100635.84;1439292;90;22440;-75
2024/03/17 09:10:59;;;;;;;8.47;2.70;;;;;;;8.22;100.00;100632.28;1439498;90;21582;-75
2024/03/17 09:13:27;;;;;;;8.77;2.63;;;;;;;8.24;100.00;100625.09;1424515;92;21464;-75
2024/03/17 09:16:00;;;;;;;7.20;2.63;;;;;;;8.24;100.00;100633.49;1463130;88;21530;-76
2024/03/17 09:18:33;;;;;;;8.90;3.33;;;;;;;8.33;100.00;100626.13;1470394;88;21427;-76
2024/03/17 09:21:10;;;;;;;10.63;3.30;;;;;;;8.49;100.00;100629.69;1395535;88;21309;-76
2024/03/17 09:23:38;;;;;;;8.30;3.17;;;;;;;8.61;100.00;100634.41;1525463;90;21236;-75
2024/03/17 09:26:09;;;;;;;15.43;3.33;;;;;;;8.58;100.00;100624.45;1423590;88;21398;-74
2024/03/17 09:28:37;;;;;;;6.55;2.92;;;;;;;8.59;100.00;100626.11;1464803;88;21441;-74
2024/03/17 09:31:06;;;;;;;6.60;3.20;;;;;;;8.56;100.00;100638.25;1470677;88;21795;-75
2024/03/17 09:33:38;;;;;;;12.05;3.12;;;;;;;8.48;100.00;100634.09;1468947;88;21655;-76
2024/03/17 09:36:07;;;;;;;6.10;3.10;;;;;;;8.51;100.00;100634.32;1454004;88;21546;-75
2024/03/17 09:38:35;;;;;;;7.00;3.40;;;;;;;8.39;100.00;100634.04;1392196;88;21309;-77
2024/03/17 09:41:03;;;;;;;9.93;3.17;;;;;;;8.32;100.00;100637.66;1370420;89;21281;-75
2024/03/17 09:43:35;;;;;;;10.30;3.57;;;;;;;8.28;100.00;100637.05;1357738;91;21354;-76
2024/03/17 09:46:04;;;;;;;11.90;4.00;;;;;;;8.44;100.00;100636.65;1392126;88;22278;-74
2024/03/17 09:48:32;;;;;;;8.60;2.93;;;;;;;8.57;100.00;100629.84;1369239;90;21303;-76
2024/03/17 09:51:01;;;;;;;7.70;2.83;;;;;;;8.67;100.00;100639.16;1393721;88;21372;-74
2024/03/17 09:53:32;;;;;;;6.27;2.53;;;;;;;8.61;100.00;100636.55;1368798;90;21422;-77
2024/03/17 09:56:09;;;;;;;11.05;3.12;;;;;;;8.67;100.00;100641.30;1483327;90;22535;-75
2024/03/17 09:58:37;;;;;;;10.70;3.73;;;;;;;8.53;100.00;100630.59;1419034;92;21598;-74
2024/03/17 10:01:05;;;;;;;7.80;4.00;;;;;;;8.77;100.00;100637.39;1464806;88;21449;-74
2024/03/17 10:03:54;;;;;;;10.03;3.10;;;;;;;8.85;100.00;100634.11;1465806;88;22291;-77
2024/03/17 10:06:28;;;;;;;8.93;3.50;;;;;;;8.83;100.00;100622.34;1471173;88;22329;-76
2024/03/17 10:09:09;;;;;;;9.37;3.13;;;;;;;8.83;100.00;100625.47;1442509;90;21443;-75
2024/03/17 10:11:36;;;;;;;7.53;3.70;;;;;;;8.83;100.00;100617.06;1446064;90;22447;-76
2024/03/17 10:14:07;;;;;;;8.70;3.60;;;;;;;8.94;100.00;100624.07;1451235;88;21612;-76
2024/03/17 10:16:38;;;;;;;;;;;;;;;9.02;100.00;100622.44;1407980;88;21374;-75
2024/03/17 10:19:15;;;;;;;8.28;3.25;;;;;;;9.13;100.00;100625.97;1475815;88;20960;-76
2024/03/17 10:21:48;;;;;;;8.47;4.27;;;;;;;9.05;100.00;100635.86;1438998;90;21369;-76
2024/03/17 10:24:25;;;;;;;14.03;3.13;;;;;;;9.10;100.00;100631.52;1423970;92;21450;-76
2024/03/17 10:26:58;;;;;;;9.00;3.93;;;;;;;9.17;100.00;100628.69;1391367;88;21206;-75
2024/03/17 10:29:37;;;;;;;10.43;3.50;;;;;;;8.93;100.00;100627.69;1525459;90;21207;-76
2024/03/17 10:32:24;;;;;;;7.90;3.07;;;;;;;8.80;100.00;100627.89;1502761;92;21208;-77
2024/03/17 10:34:45;;;;;;;12.47;5.22;;;;;;;8.81;100.00;100623.81;1424000;88;21280;-77
2024/03/17 10:37:22;;;;;;;14.90;5.13;;;;;;;8.81;100.00;100642.78;1552168;88;21451;-76
2024/03/17 10:39:55;;;;;;;6.27;3.00;;;;;;;8.68;100.00;100636.86;1553594;88;21502;-76
2024/03/17 10:42:31;;;;;;;5.80;2.73;;;;;;;8.72;100.00;100630.37;1390030;90;22182;-76
2024/03/17 10:44:58;;;;;;;10.57;3.60;;;;;;;8.68;100.00;100644.78;1390257;88;21191;-75
2024/03/17 10:47:27;;;;;;;8.83;4.77;;;;;;;8.73;100.00;100637.31;1357735;91;21428;-74
2024/03/17 10:49:56;;;;;;;10.93;4.13;;;;;;;8.69;100.00;100643.80;1369188;90;21712;-76
2024/03/17 10:52:28;;;;;;;8.77;3.77;;;;;;;8.77;100.00;100643.98;1392698;88;21266;-74
2024/03/17 10:54:55;;;;;;;8.30;3.63;;;;;;;8.76;100.00;100652.88;1415539;88;21294;-76
2024/03/17 10:57:40;;;;;;;6.77;2.87;;;;;;;8.56;100.00;100651.92;1393548;88;22175;-76
2024/03/17 11:00:09;;;;;;;3.43;2.30;;;;;;;8.55;100.00;100653.73;1553089;88;21375;-75
2024/03/17 11:02:36;;;;;;;6.70;2.93;;;;;;;8.50;100.00;100648.48;1375885;90;21384;-75
2024/03/17 11:05:08;;;;;;;4.23;2.30;;;;;;;8.61;100.00;100660.78;1393904;88;21362;-74
2024/03/17 11:07:43;;;;;;;7.13;2.93;;;;;;;8.58;100.00;100653.96;1553317;88;21331;-77
2024/03/17 11:10:11;;;;;;;10.07;3.13;;;;;;;8.49;100.00;100660.02;1392534;90;21429;-76
2024/03/17 11:12:59;;;;;;;6.95;2.80;;;;;;;8.44;100.00;100653.80;1367821;90;21281;-75
2024/03/17 11:15:40;;;;;;;4.67;2.43;;;;;;;8.54;100.00;100649.89;1519391;90;21281;-75
2024/03/17 11:18:18;;;;;;;8.50;3.12;;;;;;;8.47;100.00;100648.26;1502862;91;22043;-75
2024/03/17 11:21:12;;;;;;;8.77;3.07;;;;;;;8.70;100.00;100648.96;1419330;88;21324;-76
2024/03/17 11:23:39;;;;;;;5.43;2.27;;;;;;;8.93;100.00;100637.77;1553639;88;21383;-75
2024/03/17 11:26:08;;;;;;;6.60;3.10;;;;;;;9.04;100.00;100640.31;1394016;88;21303;-75